LIMF/TRN METAR and TAF weather

Enter ICAO airport designator
Station Type Date Time Source
LIMF METAR 2018/12/11 21:50 UTC NOAA

LIMF 112150Z VRB01KT CAVOK 01/M03 Q1019


Station Type Date Time Source
LIMF Decoded METAR 2018/12/11 21:50 UTC NOAA

Torino / Caselle, Italy (LIMF) 45-13N 007-39E 287M
Dec 11, 2018 - 04:50 PM EST / 2018.12.11 2150 UTC
Wind: Variable at 1 MPH (1 KT):0
Visibility: greater than 7 mile(s):0
Temperature: 33 F (1 C)
Dew Point: 26 F (-3 C)
Relative Humidity: 74%
Pressure (altimeter): 30.09 in. Hg (1019 hPa)
ob: LIMF 112150Z VRB01KT CAVOK 01/M03 Q1019
cycle: 22

Station Type Date Time Source
LIMF TAF 2018/12/11 18:23 UTC NOAA

TAF LIMF 111700Z 1118/1218 VRB05KT CAVOK


Example: see airport list